Time;durP1;ratioP1;P1;durP2;ratioP2;P2;SDS_P1;SDS_P2;PMS_P1;PMS_P2;Temp;Humidity;BMP_temperature;BMP_pressure;BME280_temperature;BME280_humidity;BME280_pressure;Samples;Min_cycle;Max_cycle;Signal;HPM_P1;HPM_P2
2022/06/21 00:01:49;;;;;;;7.00;4.30;;;;;;;17.61;46.44;101607.72;5034163;28;20053;-68
2022/06/21 00:04:16;;;;;;;7.70;4.50;;;;;;;17.55;46.46;101600.13;5033096;28;20042;-68
2022/06/21 00:06:42;;;;;;;7.05;4.10;;;;;;;17.48;46.54;101597.94;5033529;28;20099;-68
2022/06/21 00:09:13;;;;;;;6.65;4.20;;;;;;;17.46;46.54;101593.66;5033315;28;20084;-68
2022/06/21 00:11:40;;;;;;;6.70;4.28;;;;;;;17.46;46.28;101596.38;5033029;28;20037;-68
2022/06/21 00:14:08;;;;;;;9.73;4.72;;;;;;;17.45;46.63;101590.06;5033237;28;20064;-68
2022/06/21 00:16:35;;;;;;;9.68;4.70;;;;;;;17.46;46.63;101590.94;5032802;28;20088;-68
2022/06/21 00:19:04;;;;;;;11.15;4.72;;;;;;;17.46;46.71;101599.09;5042813;28;20106;-68
2022/06/21 00:21:37;;;;;;;8.23;5.05;;;;;;;17.43;46.75;101597.50;5052946;28;20033;-67
2022/06/21 00:24:05;;;;;;;8.68;5.47;;;;;;;17.35;46.78;101593.72;5053087;28;20047;-68
2022/06/21 00:26:31;;;;;;;8.35;4.63;;;;;;;17.26;46.67;101591.81;5051398;28;20041;-68
2022/06/21 00:28:58;;;;;;;8.80;5.00;;;;;;;17.18;47.21;101591.63;5032834;28;20033;-67
2022/06/21 00:31:34;;;;;;;10.85;4.80;;;;;;;17.13;47.04;101587.47;5031685;28;20045;-68
2022/06/21 00:34:07;;;;;;;;;;;;;;;17.12;47.07;101587.59;5033580;28;20041;-67
2022/06/21 00:36:36;;;;;;;9.35;4.50;;;;;;;17.15;46.93;101598.19;5051720;28;19927;-68
2022/06/21 00:39:04;;;;;;;9.65;4.72;;;;;;;17.13;47.12;101592.91;5052436;28;20063;-68
2022/06/21 00:41:54;;;;;;;6.32;4.47;;;;;;;17.14;47.61;101588.31;5052830;28;20459;-68
2022/06/21 00:44:29;;;;;;;9.20;5.30;;;;;;;17.13;47.24;101590.19;5052895;28;20080;-68
2022/06/21 00:47:12;;;;;;;9.05;4.75;;;;;;;17.12;47.32;101588.47;5052597;28;20129;-68
2022/06/21 00:49:48;;;;;;;5.97;3.90;;;;;;;17.06;47.30;101591.69;5052452;28;20103;-68
2022/06/21 00:52:36;;;;;;;5.95;4.25;;;;;;;16.93;47.40;101599.16;5050000;28;20112;-68
2022/06/21 00:55:10;;;;;;;8.02;3.95;;;;;;;16.84;46.95;101591.81;5052458;28;20051;-67
2022/06/21 00:57:47;;;;;;;6.43;4.43;;;;;;;16.76;47.55;101589.75;5052400;28;20040;-67
2022/06/21 01:00:22;;;;;;;9.02;5.55;;;;;;;16.72;47.33;101593.72;5053075;28;20069;-67
2022/06/21 01:02:53;;;;;;;9.02;4.75;;;;;;;16.69;47.35;101585.84;5052140;28;20040;-67
2022/06/21 01:05:22;;;;;;;8.43;4.82;;;;;;;16.65;47.69;101587.09;5052366;28;20203;-68
2022/06/21 01:07:53;;;;;;;12.65;5.70;;;;;;;16.61;47.89;101587.44;5043016;28;20066;-67
2022/06/21 01:10:19;;;;;;;6.63;5.10;;;;;;;16.55;47.65;101588.81;5031988;28;20132;-67
2022/06/21 01:12:58;;;;;;;8.02;5.13;;;;;;;16.49;47.91;101587.50;5032458;28;20060;-67
2022/06/21 01:15:35;;;;;;;9.85;5.40;;;;;;;16.50;47.96;101581.09;5031528;28;20045;-67
2022/06/21 01:18:06;;;;;;;8.32;5.93;;;;;;;16.49;48.16;101578.50;5031990;28;20091;-68
2022/06/21 01:20:36;;;;;;;7.10;5.75;;;;;;;16.49;48.49;101579.38;5032139;28;20052;-67
2022/06/21 01:23:40;;;;;;;9.63;5.90;;;;;;;16.48;48.45;101572.22;5033860;28;20037;-67
2022/06/21 01:26:46;;;;;;;9.95;5.38;;;;;;;16.47;48.52;101567.78;5051825;28;20156;-68
2022/06/21 01:29:24;;;;;;;9.63;6.05;;;;;;;16.45;48.40;101560.78;5052055;28;20045;-67
2022/06/21 01:31:54;;;;;;;8.57;5.78;;;;;;;16.45;48.33;101560.78;5051817;28;20701;-68
2022/06/21 01:34:24;;;;;;;10.07;5.70;;;;;;;16.43;48.55;101558.19;5048407;28;20049;-68
2022/06/21 01:37:07;;;;;;;9.70;5.80;;;;;;;16.43;48.62;101560.03;5031526;28;20045;-67
2022/06/21 01:39:46;;;;;;;7.68;5.80;;;;;;;16.41;48.72;101568.31;5032699;28;20115;-66
2022/06/21 01:42:25;;;;;;;9.10;6.03;;;;;;;16.39;48.36;101567.56;5031611;28;20120;-67
2022/06/21 01:44:57;;;;;;;6.13;5.22;;;;;;;16.33;48.55;101573.47;5031545;28;20506;-67
2022/06/21 01:47:39;;;;;;;7.97;5.40;;;;;;;16.23;48.34;101577.94;5031565;28;20041;-67
2022/06/21 01:50:08;;;;;;;12.10;6.45;;;;;;;16.19;48.55;101573.75;5031539;28;20065;-67
2022/06/21 01:52:41;;;;;;;8.23;6.15;;;;;;;16.15;48.47;101578.59;5031464;28;20045;-67
2022/06/21 01:55:13;;;;;;;9.63;5.93;;;;;;;16.11;48.68;101573.53;5031442;28;20124;-67
2022/06/21 01:57:39;;;;;;;7.13;6.00;;;;;;;16.08;49.00;101566.53;5049168;28;20119;-67
2022/06/21 02:00:07;;;;;;;9.35;6.10;;;;;;;16.03;48.96;101565.19;5051260;28;20041;-68
2022/06/21 02:02:41;;;;;;;8.43;5.60;;;;;;;16.00;49.05;101577.13;5049414;28;20099;-68
2022/06/21 02:05:13;;;;;;;12.07;6.05;;;;;;;16.02;49.24;101582.44;5051277;28;20102;-68
2022/06/21 02:07:45;;;;;;;6.15;5.13;;;;;;;16.00;48.84;101576.28;5051262;28;20403;-68
2022/06/21 02:10:15;;;;;;;6.93;4.32;;;;;;;15.97;48.88;101571.13;5051217;28;20047;-68
2022/06/21 02:12:54;;;;;;;6.97;4.80;;;;;;;15.94;49.12;101569.53;5049119;28;20032;-68
2022/06/21 02:15:46;;;;;;;7.55;5.20;;;;;;;15.91;49.00;101560.78;5050147;28;20102;-68
2022/06/21 02:18:16;;;;;;;8.43;6.03;;;;;;;15.87;48.90;101571.00;5046278;28;20049;-68
2022/06/21 02:21:19;;;;;;;9.43;5.60;;;;;;;15.78;48.72;101560.94;5051002;28;20117;-67
2022/06/21 02:23:52;;;;;;;8.00;5.57;;;;;;;15.72;48.80;101551.47;5049056;28;20131;-67
2022/06/21 02:26:20;;;;;;;8.45;5.60;;;;;;;15.68;48.77;101549.13;5051299;28;20151;-67
2022/06/21 02:28:48;;;;;;;7.53;5.55;;;;;;;15.61;49.18;101548.75;5051916;28;20047;-68
2022/06/21 02:31:15;;;;;;;6.35;5.10;;;;;;;15.59;49.11;101556.13;5055111;28;20130;-67
2022/06/21 02:33:47;;;;;;;7.28;5.50;;;;;;;15.54;49.42;101555.59;5054815;28;20121;-68
2022/06/21 02:36:19;;;;;;;9.50;5.35;;;;;;;15.52;49.44;101555.72;5054043;28;20061;-68
2022/06/21 02:38:50;;;;;;;8.43;5.55;;;;;;;15.47;49.34;101544.41;5054836;28;20032;-68
2022/06/21 02:41:22;;;;;;;7.28;5.45;;;;;;;15.41;49.37;101535.91;5054793;28;20043;-68
2022/06/21 02:44:01;;;;;;;12.20;6.47;;;;;;;15.31;49.91;101530.38;5054781;28;20049;-68
2022/06/21 02:46:32;;;;;;;11.05;6.03;;;;;;;15.21;49.76;101510.44;5052571;28;20363;-68
2022/06/21 02:49:05;;;;;;;6.88;5.22;;;;;;;15.14;50.03;101507.38;5054681;28;20040;-67
2022/06/21 02:51:38;;;;;;;7.18;5.35;;;;;;;15.12;49.95;101498.50;5054623;28;20068;-67
2022/06/21 02:54:32;;;;;;;8.15;4.95;;;;;;;15.12;50.11;101497.66;5054707;28;20048;-68
2022/06/21 02:57:16;;;;;;;7.60;5.03;;;;;;;15.14;49.86;101499.25;5053883;28;20045;-68
2022/06/21 02:59:45;;;;;;;7.80;5.55;;;;;;;15.16;49.60;101504.53;5054563;28;20036;-68
2022/06/21 03:04:54;;;;;;;10.57;5.60;;;;;;;15.14;49.92;101499.25;5054230;28;20041;-68
2022/06/21 03:07:26;;;;;;;8.02;5.43;;;;;;;15.13;49.86;101489.41;5054578;28;20039;-68
2022/06/21 03:09:53;;;;;;;9.60;5.45;;;;;;;15.14;50.20;101498.41;5053223;28;20048;-68
2022/06/21 03:12:28;;;;;;;9.05;6.20;;;;;;;15.15;50.22;101502.81;5054439;28;20033;-68
2022/06/21 03:15:04;;;;;;;8.63;5.60;;;;;;;15.17;50.14;101512.53;5053569;28;20041;-68
2022/06/21 03:17:38;;;;;;;11.35;6.32;;;;;;;15.19;50.12;101524.09;5051764;28;20076;-68
2022/06/21 03:20:11;;;;;;;7.22;5.65;;;;;;;15.20;50.11;101519.53;5014449;28;20048;-68
2022/06/21 03:22:41;;;;;;;7.93;5.78;;;;;;;15.18;50.11;101516.09;5014395;28;20099;-68
2022/06/21 03:25:19;;;;;;;7.45;5.97;;;;;;;15.16;50.21;101523.47;5014226;28;20049;-68
2022/06/21 03:27:57;;;;;;;8.75;6.45;;;;;;;15.12;50.03;101527.41;5014169;28;20053;-68
2022/06/21 03:30:30;;;;;;;10.98;5.88;;;;;;;15.09;50.08;101536.63;5014300;28;20113;-68
2022/06/21 03:33:01;;;;;;;10.50;6.57;;;;;;;15.06;50.28;101538.72;5014355;28;20042;-68
2022/06/21 03:35:33;;;;;;;9.70;6.28;;;;;;;15.02;50.15;101542.66;5029706;28;20053;-68
2022/06/21 03:38:01;;;;;;;9.00;5.70;;;;;;;14.96;50.15;101548.53;5033846;28;20048;-68
2022/06/21 03:43:25;;;;;;;11.05;6.82;;;;;;;14.83;50.35;101554.00;5033949;28;20112;-67
2022/06/21 03:45:53;;;;;;;9.52;6.50;;;;;;;14.78;50.26;101553.50;5033960;28;20088;-68
2022/06/21 03:48:26;;;;;;;9.20;6.15;;;;;;;14.75;50.43;101549.19;5033796;28;20042;-67
2022/06/21 03:50:59;;;;;;;10.05;6.80;;;;;;;14.74;50.49;101547.47;5034828;28;20044;-67
2022/06/21 03:53:38;;;;;;;10.05;6.72;;;;;;;14.75;50.48;101532.97;5033717;28;20470;-67
2022/06/21 03:56:21;;;;;;;9.82;7.30;;;;;;;14.76;50.62;101520.31;5033595;28;20060;-67
2022/06/21 03:59:04;;;;;;;8.98;7.35;;;;;;;14.72;50.92;101522.41;5048261;28;20124;-67
2022/06/21 04:01:42;;;;;;;8.40;7.20;;;;;;;14.70;51.08;101524.38;5053671;28;20037;-68
2022/06/21 04:04:34;;;;;;;10.10;7.15;;;;;;;14.68;51.35;101526.31;5054124;28;20532;-68
2022/06/21 04:07:17;;;;;;;14.05;7.60;;;;;;;14.70;51.46;101516.25;5053283;28;20049;-67
2022/06/21 04:09:50;;;;;;;10.32;7.72;;;;;;;14.69;51.25;101494.75;5053475;28;20041;-67
2022/06/21 04:12:52;;;;;;;12.10;7.82;;;;;;;14.62;51.69;101484.41;5052334;28;20047;-68
2022/06/21 04:15:28;;;;;;;8.98;7.25;;;;;;;14.67;51.63;101491.28;5053088;28;20045;-67
2022/06/21 04:18:02;;;;;;;9.80;6.80;;;;;;;14.73;51.62;101490.81;5052870;28;20098;-67
2022/06/21 04:20:39;;;;;;;10.70;6.85;;;;;;;14.75;51.91;101499.66;5051821;28;20049;-67
2022/06/21 04:23:28;;;;;;;10.25;7.38;;;;;;;14.75;51.86;101500.53;5052882;28;20037;-68
2022/06/21 04:25:59;;;;;;;8.27;6.88;;;;;;;14.83;51.94;101516.16;5053020;28;20123;-68
2022/06/21 04:28:47;;;;;;;10.80;6.95;;;;;;;14.89;52.05;101518.41;5041963;28;20042;-69
2022/06/21 04:31:19;;;;;;;12.27;7.55;;;;;;;14.96;52.00;101503.44;5031778;28;20092;-67
2022/06/21 04:34:09;;;;;;;11.88;7.78;;;;;;;15.00;52.30;101509.44;5046391;28;20045;-67
2022/06/21 04:37:03;;;;;;;12.13;7.07;;;;;;;15.05;52.33;101505.41;5052775;28;20041;-68
2022/06/21 04:39:38;;;;;;;11.63;8.35;;;;;;;15.09;52.10;101516.84;5052871;28;20091;-68
2022/06/21 04:42:27;;;;;;;10.75;7.43;;;;;;;15.09;52.33;101506.00;5052556;28;20045;-68
2022/06/21 04:45:20;;;;;;;11.65;8.00;;;;;;;15.12;52.56;101513.88;5039849;28;20053;-68
2022/06/21 04:48:06;;;;;;;10.93;7.55;;;;;;;15.17;52.73;101511.69;5032816;28;20037;-68
2022/06/21 04:50:39;;;;;;;11.30;8.40;;;;;;;15.21;52.65;101494.22;5030597;28;20041;-69
2022/06/21 04:53:19;;;;;;;12.48;8.15;;;;;;;15.26;52.73;101495.56;5032886;28;20041;-69
2022/06/21 04:55:57;;;;;;;9.45;7.78;;;;;;;15.32;52.84;101499.63;5033060;28;20053;-69
2022/06/21 04:58:24;;;;;;;11.45;8.20;;;;;;;15.39;52.65;101506.25;5032491;28;20041;-69
2022/06/21 05:00:52;;;;;;;10.38;7.55;;;;;;;15.44;53.01;101504.03;5033976;28;20029;-68
2022/06/21 05:03:41;;;;;;;10.50;8.07;;;;;;;15.51;53.26;101509.81;5032449;28;20104;-69
2022/06/21 05:06:11;;;;;;;11.32;7.72;;;;;;;15.58;53.30;101500.25;5032346;28;20065;-68
2022/06/21 05:08:40;;;;;;;11.88;7.60;;;;;;;15.64;53.10;101491.66;5032382;28;20037;-68
2022/06/21 05:11:10;;;;;;;16.88;7.72;;;;;;;15.70;53.41;101495.69;5035332;28;20548;-68
2022/06/21 05:13:43;;;;;;;14.45;8.48;;;;;;;15.76;53.37;101496.06;5052153;28;20033;-67
2022/06/21 05:16:37;;;;;;;14.02;8.18;;;;;;;15.82;53.70;101495.53;5049155;28;20033;-68
2022/06/21 05:19:16;;;;;;;9.65;8.13;;;;;;;15.92;53.70;101494.78;5010669;28;20054;-68
2022/06/21 05:21:50;;;;;;;11.10;8.30;;;;;;;16.00;53.54;101495.00;5012093;28;20048;-68
2022/06/21 05:24:18;;;;;;;15.23;9.20;;;;;;;16.07;53.77;101496.22;5012274;28;20379;-68
2022/06/21 05:27:05;;;;;;;13.75;8.80;;;;;;;16.14;54.06;101494.69;5025068;28;20042;-68
2022/06/21 05:29:41;;;;;;;12.55;9.25;;;;;;;16.21;53.93;101494.06;5029176;28;20026;-68
2022/06/21 05:32:21;;;;;;;14.38;8.60;;;;;;;16.29;54.19;101487.13;5033652;28;20124;-68
2022/06/21 05:34:55;;;;;;;13.10;8.65;;;;;;;16.35;54.10;101487.50;5031087;28;20050;-68
2022/06/21 05:37:35;;;;;;;14.30;10.13;;;;;;;16.40;54.22;101487.97;5030478;28;20030;-68
2022/06/21 05:40:23;;;;;;;13.25;9.60;;;;;;;16.47;54.08;101491.88;5030393;28;20120;-68
2022/06/21 05:42:52;;;;;;;14.23;9.40;;;;;;;16.53;54.03;101485.91;5027592;28;20091;-68
2022/06/21 05:45:24;;;;;;;12.07;9.27;;;;;;;16.59;54.00;101480.97;5031878;28;20504;-68
2022/06/21 05:47:56;;;;;;;13.55;9.85;;;;;;;16.65;54.31;101481.31;5028467;28;20069;-69
2022/06/21 05:50:28;;;;;;;15.25;10.32;;;;;;;16.74;54.55;101482.38;5030916;28;20045;-68
2022/06/21 05:53:08;;;;;;;13.23;9.68;;;;;;;16.82;54.67;101490.69;5030838;28;20069;-68
2022/06/21 05:55:39;;;;;;;12.27;9.95;;;;;;;16.95;54.37;101502.19;5029126;28;20042;-68
2022/06/21 05:58:20;;;;;;;16.73;9.50;;;;;;;17.12;54.41;101508.88;5030790;28;20041;-68
2022/06/21 06:00:58;;;;;;;15.20;8.23;;;;;;;17.30;54.59;101495.53;5030844;28;20063;-69
2022/06/21 06:03:46;;;;;;;12.45;6.95;;;;;;;17.48;54.30;101492.03;5030484;28;20034;-69
2022/06/21 06:06:20;;;;;;;9.60;6.22;;;;;;;17.70;54.49;101501.00;5029447;28;20045;-68
2022/06/21 06:08:54;;;;;;;11.13;6.53;;;;;;;17.90;54.01;101502.78;5030710;28;20033;-69
2022/06/21 06:11:25;;;;;;;8.85;6.40;;;;;;;18.05;54.09;101506.81;5034134;28;20060;-69
2022/06/21 06:13:54;;;;;;;10.35;6.75;;;;;;;18.22;53.72;101516.13;5028700;28;20061;-69
2022/06/21 06:16:23;;;;;;;9.70;6.10;;;;;;;18.34;53.79;101514.97;5032173;28;20042;-69
2022/06/21 06:19:04;;;;;;;11.23;5.95;;;;;;;18.56;53.70;101527.44;5028552;28;20038;-68
2022/06/21 06:21:39;;;;;;;7.57;5.03;;;;;;;18.79;53.13;101532.63;5028600;28;20121;-69
2022/06/21 06:24:15;;;;;;;6.72;4.13;;;;;;;19.02;53.12;101531.28;5030789;28;20487;-69
2022/06/21 06:26:45;;;;;;;9.77;4.07;;;;;;;19.23;52.93;101531.06;5030826;28;20038;-68
2022/06/21 06:29:32;;;;;;;10.35;4.32;;;;;;;19.43;52.94;101538.19;5031080;28;20058;-68
2022/06/21 06:32:28;;;;;;;10.45;4.18;;;;;;;19.65;52.27;101547.88;5044362;28;20037;-68
2022/06/21 06:34:56;;;;;;;4.22;2.72;;;;;;;19.84;51.83;101549.66;5050966;28;20099;-68
2022/06/21 06:37:30;;;;;;;6.38;2.67;;;;;;;19.91;51.55;101548.88;5029579;28;20045;-67
2022/06/21 06:39:58;;;;;;;9.38;3.30;;;;;;;20.05;51.66;101550.22;5029146;28;20029;-67
2022/06/21 06:42:33;;;;;;;4.90;2.72;;;;;;;20.18;50.87;101555.34;5031608;28;20096;-66
2022/06/21 06:45:06;;;;;;;10.13;2.20;;;;;;;20.31;50.93;101553.09;5045141;28;20520;-67
2022/06/21 06:47:44;;;;;;;9.52;2.65;;;;;;;20.47;50.56;101553.28;5050990;28;20091;-66
2022/06/21 06:50:29;;;;;;;6.43;2.85;;;;;;;20.60;50.11;101551.03;5045925;28;20039;-67
2022/06/21 06:53:15;;;;;;;;;;;;;;;20.72;50.02;101546.19;5031447;28;20464;-67
2022/06/21 06:55:56;;;;;;;5.63;3.00;;;;;;;20.82;50.15;101546.97;5030653;28;19921;-67
2022/06/21 06:58:35;;;;;;;8.88;3.40;;;;;;;20.85;49.94;101540.34;5030752;28;20037;-67
2022/06/21 07:01:13;;;;;;;9.63;3.25;;;;;;;20.92;49.46;101552.34;5031120;28;20111;-67
2022/06/21 07:03:47;;;;;;;7.63;2.85;;;;;;;21.06;49.45;101556.34;5030736;28;20057;-67
2022/06/21 07:06:19;;;;;;;4.47;2.45;;;;;;;21.17;49.07;101543.28;5030881;28;20046;-66
2022/06/21 07:08:56;;;;;;;7.65;2.67;;;;;;;21.29;48.49;101552.09;5030757;28;20048;-66
2022/06/21 07:11:27;;;;;;;8.20;2.50;;;;;;;21.39;48.30;101547.38;5030801;28;20484;-66
2022/06/21 07:13:58;;;;;;;5.63;2.50;;;;;;;21.53;48.38;101551.38;5031969;28;20057;-66
2022/06/21 07:16:27;;;;;;;7.00;2.97;;;;;;;21.66;47.74;101542.75;5046726;28;20053;-66
2022/06/21 07:18:58;;;;;;;5.75;2.80;;;;;;;21.76;47.73;101547.06;5053055;28;20451;-66
2022/06/21 07:21:26;;;;;;;8.48;2.75;;;;;;;21.84;47.63;101544.38;5050568;28;20065;-66
2022/06/21 07:23:57;;;;;;;5.93;3.30;;;;;;;22.01;47.02;101541.69;5052504;28;20068;-65
2022/06/21 07:26:40;;;;;;;5.97;2.92;;;;;;;22.12;46.87;101549.63;5052371;28;20044;-71
2022/06/21 07:29:20;;;;;;;6.57;2.78;;;;;;;22.21;46.73;101543.13;5054246;28;20033;-71
2022/06/21 07:32:07;;;;;;;7.50;2.58;;;;;;;22.29;46.47;101542.28;5053976;28;20040;-71
2022/06/21 07:35:02;;;;;;;7.28;1.52;;;;;;;22.40;46.57;101540.13;5053133;28;20126;-71
2022/06/21 07:37:35;;;;;;;5.07;1.80;;;;;;;22.49;45.61;101539.09;5053897;28;20102;-69
2022/06/21 07:40:09;;;;;;;6.43;1.80;;;;;;;22.56;45.29;101533.81;5034623;28;20037;-69
2022/06/21 07:43:01;;;;;;;4.57;1.90;;;;;;;22.66;44.88;101534.50;5034148;28;20385;-69
2022/06/21 07:46:11;;;;;;;5.78;1.90;;;;;;;22.71;44.82;101529.34;5033936;28;20116;-68
2022/06/21 07:48:53;;;;;;;6.00;1.73;;;;;;;22.91;44.77;101531.75;5033974;28;20049;-68
2022/06/21 07:51:25;;;;;;;4.80;1.80;;;;;;;23.03;44.64;101533.13;5034888;28;20049;-69
2022/06/21 07:54:15;;;;;;;7.30;1.92;;;;;;;23.15;44.10;101529.03;5033565;28;20411;-69
2022/06/21 07:56:48;;;;;;;4.57;1.63;;;;;;;23.30;44.11;101527.28;5032248;28;20037;-69
2022/06/21 07:59:18;;;;;;;3.83;1.85;;;;;;;23.41;43.44;101537.84;5033913;28;20041;-68
2022/06/21 08:07:45;;;;;;;5.03;1.90;;;;;;;23.63;42.65;101525.31;5033316;28;20099;-68
2022/06/21 08:10:20;;;;;;;5.18;1.35;;;;;;;23.65;42.01;101516.91;5033535;28;20120;-68
2022/06/21 08:12:49;;;;;;;5.95;2.03;;;;;;;23.66;42.22;101519.47;5033346;28;20041;-69
2022/06/21 08:15:16;;;;;;;4.95;2.00;;;;;;;23.69;42.01;101510.03;5033305;28;20037;-69
2022/06/21 08:18:00;;;;;;;6.38;2.20;;;;;;;23.74;41.52;101507.59;5034481;28;20056;-67
2022/06/21 08:20:36;;;;;;;4.38;1.85;;;;;;;23.81;41.69;101508.63;5040488;28;20112;-67
2022/06/21 08:23:14;;;;;;;5.30;2.10;;;;;;;23.93;41.32;101501.69;5053715;28;20037;-68
2022/06/21 08:25:51;;;;;;;4.70;2.15;;;;;;;24.03;41.19;101505.06;5052790;28;20120;-68
2022/06/21 08:28:42;;;;;;;8.88;2.40;;;;;;;24.17;41.41;101497.09;5053099;28;20048;-67
2022/06/21 08:31:14;;;;;;;6.50;2.10;;;;;;;24.31;41.23;101499.06;5052850;28;20033;-67
2022/06/21 08:33:51;;;;;;;7.35;2.53;;;;;;;24.38;41.00;101500.03;5051602;28;20499;-68
2022/06/21 08:36:23;;;;;;;5.15;2.40;;;;;;;24.48;40.55;101491.56;5052523;28;20055;-67
2022/06/21 08:39:04;;;;;;;5.07;2.10;;;;;;;24.52;40.54;101490.16;5052886;28;20053;-68
2022/06/21 08:42:03;;;;;;;6.07;2.50;;;;;;;24.49;40.33;101490.53;5052757;28;20406;-68
2022/06/21 08:48:06;;;;;;;8.05;2.60;;;;;;;24.60;40.33;101496.47;5032600;28;20136;-68
2022/06/21 08:51:08;;;;;;;5.40;2.30;;;;;;;24.64;39.87;101485.97;5041913;28;20083;-68
2022/06/21 08:53:50;;;;;;;5.05;2.10;;;;;;;24.77;39.96;101479.81;5001006;28;20049;-66
2022/06/21 08:56:55;;;;;;;10.23;2.00;;;;;;;24.84;39.28;101472.53;5032765;28;20120;-70
2022/06/21 08:59:40;;;;;;;5.32;2.05;;;;;;;24.89;38.94;101456.34;5032492;28;20095;-69
2022/06/21 09:02:47;;;;;;;4.17;1.90;;;;;;;24.96;39.11;101454.56;5032374;28;20092;-69
2022/06/21 09:05:36;;;;;;;3.88;2.15;;;;;;;25.07;38.98;101464.25;5032168;28;20375;-69
2022/06/21 09:08:21;;;;;;;6.03;3.00;;;;;;;25.11;38.52;101460.09;5032276;28;20041;-70
2022/06/21 09:11:13;;;;;;;6.07;2.73;;;;;;;25.09;38.23;101435.53;5032327;28;20061;-70
2022/06/21 09:14:18;;;;;;;7.03;2.80;;;;;;;25.10;38.36;101428.16;5032700;28;20045;-69
2022/06/21 09:16:59;;;;;;;3.63;2.25;;;;;;;25.09;38.40;101419.06;5032176;28;20037;-69
2022/06/21 09:19:53;;;;;;;5.95;2.53;;;;;;;25.05;38.45;101416.88;5049012;28;20048;-69
2022/06/21 09:22:37;;;;;;;6.50;2.40;;;;;;;24.95;38.08;101422.63;5044868;28;20052;-70
2022/06/21 09:25:17;;;;;;;4.88;2.53;;;;;;;24.90;38.21;101408.59;5031975;28;20137;-69
2022/06/21 09:27:50;;;;;;;4.63;2.63;;;;;;;24.92;38.08;101409.25;5031960;28;20051;-70
2022/06/21 09:30:42;;;;;;;6.07;2.92;;;;;;;24.94;38.37;101426.41;5031827;28;20041;-70
2022/06/21 09:33:21;;;;;;;7.18;2.78;;;;;;;25.01;38.47;101425.50;5031697;28;20053;-70
2022/06/21 09:36:12;;;;;;;5.25;2.60;;;;;;;25.04;38.32;101413.28;5030805;28;20041;-70
2022/06/21 09:39:15;;;;;;;5.28;2.70;;;;;;;25.05;38.06;101414.13;5030793;28;20120;-70
2022/06/21 09:42:15;;;;;;;6.47;3.20;;;;;;;25.13;38.39;101409.38;5031383;28;20033;-70
2022/06/21 09:45:02;;;;;;;6.35;2.78;;;;;;;25.19;38.06;101402.28;5031778;28;20036;-70
2022/06/21 09:47:51;;;;;;;5.70;2.60;;;;;;;25.26;37.81;101404.06;5031892;28;20041;-69
2022/06/21 09:50:34;;;;;;;6.05;2.25;;;;;;;25.37;37.89;101394.50;5031578;28;20111;-69
2022/06/21 09:53:33;;;;;;;3.38;1.67;;;;;;;25.52;37.35;101380.72;5030093;28;20052;-71
2022/06/21 09:56:16;;;;;;;8.18;2.35;;;;;;;25.73;37.62;101380.78;5032514;28;20073;-70
2022/06/21 09:59:09;;;;;;;5.55;2.05;;;;;;;25.91;37.52;101381.16;5050999;28;20053;-70
2022/06/21 10:01:47;;;;;;;4.28;2.05;;;;;;;26.06;37.19;101377.53;5050987;28;20091;-72
2022/06/21 10:04:41;;;;;;;5.57;2.13;;;;;;;26.15;36.91;101382.69;5052111;28;20103;-72
2022/06/21 10:07:19;;;;;;;6.15;2.22;;;;;;;26.21;36.57;101392.91;5051195;28;20120;-71
2022/06/21 10:10:14;;;;;;;6.03;2.10;;;;;;;26.26;36.47;101395.06;5048235;28;20119;-70
2022/06/21 10:12:55;;;;;;;4.00;1.98;;;;;;;26.27;36.37;101394.03;5031392;28;20047;-68
2022/06/21 10:15:54;;;;;;;3.90;2.00;;;;;;;26.27;36.38;101394.88;5031212;28;20049;-68
2022/06/21 10:18:41;;;;;;;3.50;2.00;;;;;;;26.20;35.89;101396.72;5018413;28;20064;-68
2022/06/21 10:21:29;;;;;;;9.13;2.28;;;;;;;26.08;35.90;101398.31;5031174;28;20515;-68
2022/06/21 10:24:21;;;;;;;4.15;1.83;;;;;;;26.03;35.65;101391.69;5030779;28;20046;-68
2022/06/21 10:27:19;;;;;;;3.75;1.70;;;;;;;26.01;35.93;101391.00;5030902;28;20041;-67
2022/06/21 10:29:51;;;;;;;3.83;1.90;;;;;;;25.91;35.72;101392.19;5030897;28;20392;-68
2022/06/21 10:32:32;;;;;;;4.03;1.70;;;;;;;25.84;36.03;101387.66;5029645;28;20038;-68
2022/06/21 10:35:20;;;;;;;3.65;1.85;;;;;;;25.89;36.14;101393.44;5030974;28;20049;-69
2022/06/21 10:38:01;;;;;;;4.35;1.30;;;;;;;25.92;35.94;101399.38;5031036;28;20041;-68
2022/06/21 10:40:46;;;;;;;2.85;1.27;;;;;;;26.00;35.66;101394.81;5029687;28;20340;-69
2022/06/21 10:43:44;;;;;;;5.00;1.40;;;;;;;26.01;35.58;101386.38;5030802;28;20029;-68
2022/06/21 10:46:53;;;;;;;3.63;1.50;;;;;;;26.03;35.50;101384.28;5030867;28;20108;-68
2022/06/21 10:49:50;;;;;;;3.30;1.30;;;;;;;26.14;35.17;101392.00;5031695;28;20076;-67
2022/06/21 10:52:43;;;;;;;4.03;2.00;;;;;;;26.28;34.94;101395.72;5033560;28;20045;-68
2022/06/21 10:55:42;;;;;;;3.53;1.63;;;;;;;26.35;35.02;101385.66;5034714;28;20495;-68
2022/06/21 10:58:40;;;;;;;3.50;1.50;;;;;;;26.43;34.94;101381.91;5034537;28;20049;-67
2022/06/21 11:01:30;;;;;;;4.63;1.50;;;;;;;26.47;34.92;101385.97;5034463;28;20029;-67
2022/06/21 11:04:22;;;;;;;5.13;1.50;;;;;;;26.53;34.83;101391.53;5033316;28;20068;-68
2022/06/21 11:07:10;;;;;;;3.10;1.38;;;;;;;26.55;34.47;101403.19;5034487;28;20052;-68
2022/06/21 11:10:00;;;;;;;3.42;0.93;;;;;;;26.55;34.14;101397.69;5034133;28;20416;-67
2022/06/21 11:12:56;;;;;;;2.60;0.90;;;;;;;26.59;34.00;101392.63;5034215;28;20069;-68
2022/06/21 11:15:49;;;;;;;3.42;0.90;;;;;;;26.56;34.06;101384.75;5034330;28;20407;-67
2022/06/21 11:18:22;;;;;;;2.97;1.02;;;;;;;26.52;34.46;101391.72;5034151;28;20802;-67
2022/06/21 11:21:16;;;;;;;3.88;1.13;;;;;;;26.45;33.96;101377.91;5034017;28;20099;-68
2022/06/21 11:23:58;;;;;;;2.90;1.17;;;;;;;26.39;33.93;101386.09;5034097;28;20507;-67
2022/06/21 11:27:00;;;;;;;3.08;0.95;;;;;;;26.32;33.95;101376.91;5034119;28;20075;-67
2022/06/21 11:29:55;;;;;;;4.07;1.50;;;;;;;26.28;33.74;101371.81;5034061;28;20033;-68
2022/06/21 11:32:48;;;;;;;1.65;0.90;;;;;;;26.34;34.01;101372.94;5033942;28;20041;-68
2022/06/21 11:35:18;;;;;;;4.80;1.00;;;;;;;26.40;33.98;101391.41;5032894;28;20058;-67
2022/06/21 11:37:45;;;;;;;2.83;1.05;;;;;;;26.44;33.91;101389.97;5033928;28;20045;-67
2022/06/21 11:40:33;;;;;;;4.15;0.90;;;;;;;26.51;33.75;101390.00;5033684;28;20095;-67
2022/06/21 11:43:03;;;;;;;3.90;1.08;;;;;;;26.61;33.76;101387.75;5033835;28;20116;-68
2022/06/21 11:45:51;;;;;;;2.72;1.00;;;;;;;26.65;33.57;101377.19;5033946;28;20144;-67
2022/06/21 11:48:30;;;;;;;3.03;1.00;;;;;;;26.71;32.90;101384.66;5033830;28;20045;-68
2022/06/21 11:51:11;;;;;;;3.13;1.02;;;;;;;26.73;32.78;101386.16;5033493;28;20041;-67
2022/06/21 11:53:45;;;;;;;3.20;1.15;;;;;;;26.77;32.53;101381.13;5034146;28;20050;-68
2022/06/21 11:56:23;;;;;;;5.03;0.90;;;;;;;26.80;32.64;101375.19;5033355;28;20489;-67
2022/06/21 11:59:06;;;;;;;5.32;1.10;;;;;;;26.87;32.80;101384.34;5033721;28;20081;-68
2022/06/21 12:01:55;;;;;;;3.92;1.02;;;;;;;26.87;32.73;101385.22;5032931;28;20047;-67
2022/06/21 12:04:39;;;;;;;4.13;0.93;;;;;;;26.87;32.56;101384.34;5033559;28;20049;-67
2022/06/21 12:07:35;;;;;;;2.83;1.08;;;;;;;26.89;32.64;101377.59;5033317;28;20034;-67
2022/06/21 12:10:07;;;;;;;2.10;0.70;;;;;;;26.95;32.57;101380.59;5033681;28;20048;-67
2022/06/21 12:13:25;;;;;;;2.55;0.80;;;;;;;26.98;32.49;101366.44;5033236;28;20045;-67
2022/06/21 12:16:16;;;;;;;3.97;1.33;;;;;;;26.93;32.67;101355.97;5020772;28;20050;-67
2022/06/21 12:18:49;;;;;;;4.55;0.90;;;;;;;26.86;32.74;101363.38;5033071;28;20127;-67
2022/06/21 12:21:21;;;;;;;4.82;0.90;;;;;;;26.80;32.87;101356.75;5033007;28;20038;-67
2022/06/21 12:24:00;;;;;;;2.72;0.70;;;;;;;26.77;32.80;101359.06;5032897;28;20049;-67
2022/06/21 12:26:29;;;;;;;5.85;1.20;;;;;;;26.75;32.77;101356.47;5032995;28;20034;-67
2022/06/21 12:28:58;;;;;;;2.55;1.10;;;;;;;26.74;32.78;101351.19;5032940;28;20041;-68
2022/06/21 12:31:29;;;;;;;7.90;0.90;;;;;;;26.73;32.73;101349.47;5032712;28;20045;-67
2022/06/21 12:34:01;;;;;;;3.92;0.93;;;;;;;26.71;33.02;101346.91;5032755;28;20053;-67
2022/06/21 12:36:38;;;;;;;4.35;1.10;;;;;;;26.72;32.93;101339.50;5032992;28;20080;-68